sensor_id;sensor_type;location;lat;lon;timestamp;P1;durP1;ratioP1;P2;durP2;ratioP2
3755;SDS011;1893;52.526;13.360;2022-08-19T00:00:14;20.03;;;18.10;;
3755;SDS011;1893;52.526;13.360;2022-08-19T00:02:41;21.33;;;17.60;;
3755;SDS011;1893;52.526;13.360;2022-08-19T00:05:07;17.83;;;16.03;;
3755;SDS011;1893;52.526;13.360;2022-08-19T00:07:34;21.17;;;18.03;;
3755;SDS011;1893;52.526;13.360;2022-08-19T00:10:00;19.33;;;17.30;;
3755;SDS011;1893;52.526;13.360;2022-08-19T00:12:25;18.70;;;16.80;;
3755;SDS011;1893;52.526;13.360;2022-08-19T00:14:51;17.50;;;15.80;;
3755;SDS011;1893;52.526;13.360;2022-08-19T00:17:19;19.13;;;17.13;;
3755;SDS011;1893;52.526;13.360;2022-08-19T00:19:44;20.97;;;18.97;;
3755;SDS011;1893;52.526;13.360;2022-08-19T00:22:10;23.53;;;20.10;;
3755;SDS011;1893;52.526;13.360;2022-08-19T00:24:36;22.00;;;19.80;;
3755;SDS011;1893;52.526;13.360;2022-08-19T00:27:03;24.27;;;21.63;;
3755;SDS011;1893;52.526;13.360;2022-08-19T00:29:30;24.30;;;21.87;;
3755;SDS011;1893;52.526;13.360;2022-08-19T00:31:56;23.73;;;21.17;;
3755;SDS011;1893;52.526;13.360;2022-08-19T00:34:23;22.53;;;19.67;;
3755;SDS011;1893;52.526;13.360;2022-08-19T00:36:53;19.10;;;17.10;;
3755;SDS011;1893;52.526;13.360;2022-08-19T00:39:19;19.13;;;17.33;;
3755;SDS011;1893;52.526;13.360;2022-08-19T00:41:46;18.73;;;17.03;;
3755;SDS011;1893;52.526;13.360;2022-08-19T00:44:21;19.10;;;16.53;;
3755;SDS011;1893;52.526;13.360;2022-08-19T00:46:49;19.13;;;17.13;;
3755;SDS011;1893;52.526;13.360;2022-08-19T00:49:20;18.00;;;16.30;;
3755;SDS011;1893;52.526;13.360;2022-08-19T00:51:55;18.80;;;17.00;;
3755;SDS011;1893;52.526;13.360;2022-08-19T00:54:28;18.97;;;17.07;;
3755;SDS011;1893;52.526;13.360;2022-08-19T00:56:56;19.07;;;17.17;;
3755;SDS011;1893;52.526;13.360;2022-08-19T00:59:23;21.00;;;17.80;;
3755;SDS011;1893;52.526;13.360;2022-08-19T01:01:49;21.73;;;17.60;;
3755;SDS011;1893;52.526;13.360;2022-08-19T01:04:15;21.07;;;18.80;;
3755;SDS011;1893;52.526;13.360;2022-08-19T01:06:41;24.67;;;19.40;;
3755;SDS011;1893;52.526;13.360;2022-08-19T01:09:07;21.40;;;18.70;;
3755;SDS011;1893;52.526;13.360;2022-08-19T01:11:34;21.70;;;19.50;;
3755;SDS011;1893;52.526;13.360;2022-08-19T01:14:03;19.93;;;17.77;;
3755;SDS011;1893;52.526;13.360;2022-08-19T01:16:29;22.97;;;20.50;;
3755;SDS011;1893;52.526;13.360;2022-08-19T01:18:57;23.60;;;20.43;;
3755;SDS011;1893;52.526;13.360;2022-08-19T01:21:25;21.80;;;18.13;;
3755;SDS011;1893;52.526;13.360;2022-08-19T01:23:57;21.37;;;18.20;;
3755;SDS011;1893;52.526;13.360;2022-08-19T01:26:24;23.53;;;20.53;;
3755;SDS011;1893;52.526;13.360;2022-08-19T01:28:52;22.90;;;19.40;;
3755;SDS011;1893;52.526;13.360;2022-08-19T01:31:22;21.50;;;19.23;;
3755;SDS011;1893;52.526;13.360;2022-08-19T01:33:49;25.43;;;22.57;;
3755;SDS011;1893;52.526;13.360;2022-08-19T01:36:22;21.77;;;19.57;;
3755;SDS011;1893;52.526;13.360;2022-08-19T01:38:54;25.60;;;23.17;;
3755;SDS011;1893;52.526;13.360;2022-08-19T01:41:20;26.10;;;23.20;;
3755;SDS011;1893;52.526;13.360;2022-08-19T01:43:48;26.97;;;22.00;;
3755;SDS011;1893;52.526;13.360;2022-08-19T01:46:15;25.30;;;21.33;;
3755;SDS011;1893;52.526;13.360;2022-08-19T01:48:41;27.83;;;22.53;;
3755;SDS011;1893;52.526;13.360;2022-08-19T01:51:08;24.27;;;21.67;;
3755;SDS011;1893;52.526;13.360;2022-08-19T01:53:34;28.20;;;23.07;;
3755;SDS011;1893;52.526;13.360;2022-08-19T01:56:01;27.73;;;23.47;;
3755;SDS011;1893;52.526;13.360;2022-08-19T01:58:30;26.27;;;23.57;;
3755;SDS011;1893;52.526;13.360;2022-08-19T02:01:01;26.23;;;23.47;;
3755;SDS011;1893;52.526;13.360;2022-08-19T02:03:28;26.87;;;22.50;;
3755;SDS011;1893;52.526;13.360;2022-08-19T02:05:55;30.13;;;23.70;;
3755;SDS011;1893;52.526;13.360;2022-08-19T02:08:22;25.70;;;21.23;;
3755;SDS011;1893;52.526;13.360;2022-08-19T02:10:48;24.30;;;21.87;;
3755;SDS011;1893;52.526;13.360;2022-08-19T02:13:14;24.40;;;20.17;;
3755;SDS011;1893;52.526;13.360;2022-08-19T02:15:40;24.40;;;21.80;;
3755;SDS011;1893;52.526;13.360;2022-08-19T02:18:06;26.67;;;22.27;;
3755;SDS011;1893;52.526;13.360;2022-08-19T02:20:33;24.67;;;21.73;;
3755;SDS011;1893;52.526;13.360;2022-08-19T02:23:00;21.93;;;19.57;;
3755;SDS011;1893;52.526;13.360;2022-08-19T02:25:26;26.33;;;21.33;;
3755;SDS011;1893;52.526;13.360;2022-08-19T02:27:51;24.90;;;22.20;;
3755;SDS011;1893;52.526;13.360;2022-08-19T02:30:18;22.30;;;19.93;;
3755;SDS011;1893;52.526;13.360;2022-08-19T02:32:44;22.67;;;20.17;;
3755;SDS011;1893;52.526;13.360;2022-08-19T02:35:11;22.60;;;20.20;;
3755;SDS011;1893;52.526;13.360;2022-08-19T02:37:37;21.57;;;19.63;;
3755;SDS011;1893;52.526;13.360;2022-08-19T02:40:21;23.13;;;20.90;;
3755;SDS011;1893;52.526;13.360;2022-08-19T02:42:47;24.13;;;21.73;;
3755;SDS011;1893;52.526;13.360;2022-08-19T02:45:13;25.53;;;21.27;;
3755;SDS011;1893;52.526;13.360;2022-08-19T02:47:39;24.53;;;22.03;;
3755;SDS011;1893;52.526;13.360;2022-08-19T02:50:05;26.23;;;22.27;;
3755;SDS011;1893;52.526;13.360;2022-08-19T02:52:31;27.37;;;24.37;;
3755;SDS011;1893;52.526;13.360;2022-08-19T02:54:58;40.33;;;35.97;;
3755;SDS011;1893;52.526;13.360;2022-08-19T02:57:25;49.90;;;43.80;;
3755;SDS011;1893;52.526;13.360;2022-08-19T02:59:51;47.20;;;41.80;;
3755;SDS011;1893;52.526;13.360;2022-08-19T03:02:17;36.03;;;31.37;;
3755;SDS011;1893;52.526;13.360;2022-08-19T03:04:43;30.43;;;26.43;;
3755;SDS011;1893;52.526;13.360;2022-08-19T03:07:09;27.97;;;24.93;;
3755;SDS011;1893;52.526;13.360;2022-08-19T03:09:38;27.13;;;24.33;;
3755;SDS011;1893;52.526;13.360;2022-08-19T03:12:04;26.43;;;23.60;;
3755;SDS011;1893;52.526;13.360;2022-08-19T03:14:31;25.90;;;23.10;;
3755;SDS011;1893;52.526;13.360;2022-08-19T03:16:57;26.03;;;22.13;;
3755;SDS011;1893;52.526;13.360;2022-08-19T03:19:23;28.37;;;24.30;;
3755;SDS011;1893;52.526;13.360;2022-08-19T03:21:49;26.33;;;22.90;;
3755;SDS011;1893;52.526;13.360;2022-08-19T03:24:16;26.03;;;22.87;;
3755;SDS011;1893;52.526;13.360;2022-08-19T03:26:45;27.17;;;24.33;;
3755;SDS011;1893;52.526;13.360;2022-08-19T03:29:13;31.00;;;25.33;;
3755;SDS011;1893;52.526;13.360;2022-08-19T03:31:39;32.90;;;28.10;;
3755;SDS011;1893;52.526;13.360;2022-08-19T03:34:06;25.27;;;22.63;;
3755;SDS011;1893;52.526;13.360;2022-08-19T03:36:32;30.30;;;25.00;;
3755;SDS011;1893;52.526;13.360;2022-08-19T03:38:59;28.47;;;25.50;;
3755;SDS011;1893;52.526;13.360;2022-08-19T03:41:32;29.30;;;25.83;;
3755;SDS011;1893;52.526;13.360;2022-08-19T03:44:02;26.83;;;23.97;;
3755;SDS011;1893;52.526;13.360;2022-08-19T03:46:30;27.03;;;24.40;;
3755;SDS011;1893;52.526;13.360;2022-08-19T03:48:58;26.90;;;24.10;;
3755;SDS011;1893;52.526;13.360;2022-08-19T03:51:29;27.80;;;24.97;;
3755;SDS011;1893;52.526;13.360;2022-08-19T03:53:57;27.07;;;24.17;;
3755;SDS011;1893;52.526;13.360;2022-08-19T03:56:25;30.23;;;24.23;;
3755;SDS011;1893;52.526;13.360;2022-08-19T03:58:52;27.10;;;24.30;;
3755;SDS011;1893;52.526;13.360;2022-08-19T04:01:19;25.50;;;22.13;;
3755;SDS011;1893;52.526;13.360;2022-08-19T04:03:47;26.60;;;23.80;;
3755;SDS011;1893;52.526;13.360;2022-08-19T04:06:18;27.47;;;23.33;;
3755;SDS011;1893;52.526;13.360;2022-08-19T04:08:48;28.13;;;25.23;;
3755;SDS011;1893;52.526;13.360;2022-08-19T04:11:17;27.63;;;24.67;;
3755;SDS011;1893;52.526;13.360;2022-08-19T04:13:48;28.03;;;25.00;;
3755;SDS011;1893;52.526;13.360;2022-08-19T04:16:16;28.23;;;24.40;;
3755;SDS011;1893;52.526;13.360;2022-08-19T04:18:42;28.73;;;23.90;;
3755;SDS011;1893;52.526;13.360;2022-08-19T04:21:08;25.93;;;23.33;;
3755;SDS011;1893;52.526;13.360;2022-08-19T04:23:44;26.97;;;24.00;;
3755;SDS011;1893;52.526;13.360;2022-08-19T04:26:13;26.57;;;23.97;;
3755;SDS011;1893;52.526;13.360;2022-08-19T04:28:40;30.30;;;23.43;;
3755;SDS011;1893;52.526;13.360;2022-08-19T04:31:11;25.50;;;22.60;;
3755;SDS011;1893;52.526;13.360;2022-08-19T04:33:44;24.93;;;22.33;;
3755;SDS011;1893;52.526;13.360;2022-08-19T04:36:17;26.80;;;24.20;;
3755;SDS011;1893;52.526;13.360;2022-08-19T04:38:45;24.43;;;21.90;;
3755;SDS011;1893;52.526;13.360;2022-08-19T04:41:11;27.77;;;24.90;;
3755;SDS011;1893;52.526;13.360;2022-08-19T04:43:55;27.47;;;24.77;;
3755;SDS011;1893;52.526;13.360;2022-08-19T04:46:21;28.77;;;25.67;;
3755;SDS011;1893;52.526;13.360;2022-08-19T04:48:47;24.87;;;22.30;;
3755;SDS011;1893;52.526;13.360;2022-08-19T04:51:12;26.83;;;23.37;;
3755;SDS011;1893;52.526;13.360;2022-08-19T04:53:38;24.47;;;22.07;;
3755;SDS011;1893;52.526;13.360;2022-08-19T04:56:07;25.47;;;22.80;;
3755;SDS011;1893;52.526;13.360;2022-08-19T04:58:38;23.37;;;21.07;;
3755;SDS011;1893;52.526;13.360;2022-08-19T05:01:07;23.13;;;20.93;;
3755;SDS011;1893;52.526;13.360;2022-08-19T05:03:35;27.10;;;23.30;;
3755;SDS011;1893;52.526;13.360;2022-08-19T05:06:07;25.07;;;22.67;;
3755;SDS011;1893;52.526;13.360;2022-08-19T05:08:35;26.33;;;22.27;;
3755;SDS011;1893;52.526;13.360;2022-08-19T05:11:14;23.17;;;20.90;;
3755;SDS011;1893;52.526;13.360;2022-08-19T05:13:41;23.70;;;21.40;;
3755;SDS011;1893;52.526;13.360;2022-08-19T05:16:08;22.80;;;20.63;;
3755;SDS011;1893;52.526;13.360;2022-08-19T05:18:35;24.73;;;22.40;;
3755;SDS011;1893;52.526;13.360;2022-08-19T05:21:20;21.73;;;19.37;;
3755;SDS011;1893;52.526;13.360;2022-08-19T05:24:04;23.80;;;21.40;;
3755;SDS011;1893;52.526;13.360;2022-08-19T05:26:34;24.40;;;21.90;;
3755;SDS011;1893;52.526;13.360;2022-08-19T05:29:11;22.97;;;20.57;;
3755;SDS011;1893;52.526;13.360;2022-08-19T05:31:37;22.13;;;19.93;;
3755;SDS011;1893;52.526;13.360;2022-08-19T05:34:03;20.00;;;18.10;;
3755;SDS011;1893;52.526;13.360;2022-08-19T05:36:38;24.03;;;21.27;;
3755;SDS011;1893;52.526;13.360;2022-08-19T05:39:09;24.30;;;20.70;;
3755;SDS011;1893;52.526;13.360;2022-08-19T05:41:41;22.50;;;20.00;;
3755;SDS011;1893;52.526;13.360;2022-08-19T05:44:11;22.80;;;20.50;;
3755;SDS011;1893;52.526;13.360;2022-08-19T05:46:37;22.73;;;20.40;;
3755;SDS011;1893;52.526;13.360;2022-08-19T05:49:04;20.73;;;18.70;;
3755;SDS011;1893;52.526;13.360;2022-08-19T05:51:31;22.30;;;19.90;;
3755;SDS011;1893;52.526;13.360;2022-08-19T05:53:59;21.97;;;19.87;;
3755;SDS011;1893;52.526;13.360;2022-08-19T05:56:25;22.00;;;19.57;;
3755;SDS011;1893;52.526;13.360;2022-08-19T05:58:51;23.40;;;21.03;;
3755;SDS011;1893;52.526;13.360;2022-08-19T06:01:18;24.77;;;21.73;;
3755;SDS011;1893;52.526;13.360;2022-08-19T06:03:43;21.13;;;18.90;;
3755;SDS011;1893;52.526;13.360;2022-08-19T06:06:10;22.80;;;20.23;;
3755;SDS011;1893;52.526;13.360;2022-08-19T06:08:38;23.87;;;20.33;;
3755;SDS011;1893;52.526;13.360;2022-08-19T06:11:21;24.17;;;21.67;;
3755;SDS011;1893;52.526;13.360;2022-08-19T06:13:48;23.10;;;20.87;;
3755;SDS011;1893;52.526;13.360;2022-08-19T06:16:18;28.60;;;25.13;;
3755;SDS011;1893;52.526;13.360;2022-08-19T06:18:51;23.20;;;20.90;;
3755;SDS011;1893;52.526;13.360;2022-08-19T06:21:21;24.57;;;20.27;;
3755;SDS011;1893;52.526;13.360;2022-08-19T06:23:47;21.23;;;19.03;;
3755;SDS011;1893;52.526;13.360;2022-08-19T06:26:14;23.67;;;20.63;;
3755;SDS011;1893;52.526;13.360;2022-08-19T06:28:41;21.00;;;19.00;;
3755;SDS011;1893;52.526;13.360;2022-08-19T06:31:09;25.77;;;23.37;;
3755;SDS011;1893;52.526;13.360;2022-08-19T06:33:35;23.33;;;20.97;;
3755;SDS011;1893;52.526;13.360;2022-08-19T06:36:02;23.30;;;20.97;;
3755;SDS011;1893;52.526;13.360;2022-08-19T06:38:28;23.10;;;20.80;;
3755;SDS011;1893;52.526;13.360;2022-08-19T06:41:00;24.63;;;21.60;;
3755;SDS011;1893;52.526;13.360;2022-08-19T06:43:27;24.93;;;22.53;;
3755;SDS011;1893;52.526;13.360;2022-08-19T06:45:52;23.20;;;21.10;;
3755;SDS011;1893;52.526;13.360;2022-08-19T06:48:18;23.47;;;20.97;;
3755;SDS011;1893;52.526;13.360;2022-08-19T06:50:44;21.37;;;19.37;;
3755;SDS011;1893;52.526;13.360;2022-08-19T06:53:09;23.40;;;21.03;;
3755;SDS011;1893;52.526;13.360;2022-08-19T06:55:35;23.50;;;21.07;;
3755;SDS011;1893;52.526;13.360;2022-08-19T06:58:02;23.30;;;21.10;;
3755;SDS011;1893;52.526;13.360;2022-08-19T07:00:29;23.10;;;20.80;;
3755;SDS011;1893;52.526;13.360;2022-08-19T07:02:54;26.30;;;23.47;;
3755;SDS011;1893;52.526;13.360;2022-08-19T07:05:20;24.77;;;22.27;;
3755;SDS011;1893;52.526;13.360;2022-08-19T07:07:46;26.00;;;23.47;;
3755;SDS011;1893;52.526;13.360;2022-08-19T07:10:11;23.90;;;21.60;;
3755;SDS011;1893;52.526;13.360;2022-08-19T07:12:37;24.03;;;21.73;;
3755;SDS011;1893;52.526;13.360;2022-08-19T07:15:03;25.37;;;22.90;;
3755;SDS011;1893;52.526;13.360;2022-08-19T07:17:31;26.80;;;24.10;;
3755;SDS011;1893;52.526;13.360;2022-08-19T07:19:58;25.30;;;22.80;;
3755;SDS011;1893;52.526;13.360;2022-08-19T07:22:23;25.80;;;23.40;;
3755;SDS011;1893;52.526;13.360;2022-08-19T07:24:49;26.30;;;23.50;;
3755;SDS011;1893;52.526;13.360;2022-08-19T07:27:15;26.07;;;23.37;;
3755;SDS011;1893;52.526;13.360;2022-08-19T07:29:40;25.73;;;23.33;;
3755;SDS011;1893;52.526;13.360;2022-08-19T07:32:06;26.07;;;23.30;;
3755;SDS011;1893;52.526;13.360;2022-08-19T07:34:32;25.70;;;23.10;;
3755;SDS011;1893;52.526;13.360;2022-08-19T07:37:02;25.13;;;22.57;;
3755;SDS011;1893;52.526;13.360;2022-08-19T07:39:30;26.60;;;24.00;;
3755;SDS011;1893;52.526;13.360;2022-08-19T07:41:58;25.37;;;22.77;;
3755;SDS011;1893;52.526;13.360;2022-08-19T07:44:25;25.40;;;22.90;;
3755;SDS011;1893;52.526;13.360;2022-08-19T07:46:52;25.93;;;23.33;;
3755;SDS011;1893;52.526;13.360;2022-08-19T07:49:20;25.63;;;23.17;;
3755;SDS011;1893;52.526;13.360;2022-08-19T07:51:52;26.43;;;24.03;;
3755;SDS011;1893;52.526;13.360;2022-08-19T07:54:21;26.70;;;24.20;;
3755;SDS011;1893;52.526;13.360;2022-08-19T07:56:47;25.23;;;22.83;;
3755;SDS011;1893;52.526;13.360;2022-08-19T07:59:15;27.00;;;24.27;;
3755;SDS011;1893;52.526;13.360;2022-08-19T08:01:42;27.93;;;25.20;;
3755;SDS011;1893;52.526;13.360;2022-08-19T08:04:09;28.00;;;25.13;;
3755;SDS011;1893;52.526;13.360;2022-08-19T08:06:53;28.07;;;25.10;;
3755;SDS011;1893;52.526;13.360;2022-08-19T08:09:38;26.20;;;23.43;;
3755;SDS011;1893;52.526;13.360;2022-08-19T08:12:10;28.70;;;25.80;;
3755;SDS011;1893;52.526;13.360;2022-08-19T08:14:48;26.93;;;24.33;;
3755;SDS011;1893;52.526;13.360;2022-08-19T08:17:18;26.07;;;23.53;;
3755;SDS011;1893;52.526;13.360;2022-08-19T08:19:48;25.70;;;23.37;;
3755;SDS011;1893;52.526;13.360;2022-08-19T08:22:16;29.10;;;26.13;;
3755;SDS011;1893;52.526;13.360;2022-08-19T08:25:07;31.70;;;27.77;;
3755;SDS011;1893;52.526;13.360;2022-08-19T08:27:36;28.87;;;25.97;;
3755;SDS011;1893;52.526;13.360;2022-08-19T08:30:05;28.00;;;25.17;;
3755;SDS011;1893;52.526;13.360;2022-08-19T08:32:34;28.97;;;26.00;;
3755;SDS011;1893;52.526;13.360;2022-08-19T08:35:00;27.10;;;24.60;;
3755;SDS011;1893;52.526;13.360;2022-08-19T08:37:26;29.20;;;26.43;;
3755;SDS011;1893;52.526;13.360;2022-08-19T08:39:51;28.30;;;24.77;;
3755;SDS011;1893;52.526;13.360;2022-08-19T08:42:20;28.20;;;25.50;;
3755;SDS011;1893;52.526;13.360;2022-08-19T08:44:59;28.77;;;25.80;;
3755;SDS011;1893;52.526;13.360;2022-08-19T08:47:30;28.53;;;25.43;;
3755;SDS011;1893;52.526;13.360;2022-08-19T08:50:08;30.30;;;26.60;;
3755;SDS011;1893;52.526;13.360;2022-08-19T08:52:47;28.20;;;25.50;;
3755;SDS011;1893;52.526;13.360;2022-08-19T08:55:17;29.23;;;26.07;;
3755;SDS011;1893;52.526;13.360;2022-08-19T09:02:51;29.00;;;24.57;;
3755;SDS011;1893;52.526;13.360;2022-08-19T09:05:19;27.00;;;24.33;;
3755;SDS011;1893;52.526;13.360;2022-08-19T09:15:43;23.90;;;21.50;;
3755;SDS011;1893;52.526;13.360;2022-08-19T09:18:12;28.37;;;25.47;;
3755;SDS011;1893;52.526;13.360;2022-08-19T09:20:38;27.30;;;24.40;;
3755;SDS011;1893;52.526;13.360;2022-08-19T09:23:04;26.67;;;23.97;;
3755;SDS011;1893;52.526;13.360;2022-08-19T09:25:29;25.70;;;23.10;;
3755;SDS011;1893;52.526;13.360;2022-08-19T09:27:56;25.70;;;23.00;;
3755;SDS011;1893;52.526;13.360;2022-08-19T09:30:24;26.33;;;23.60;;
3755;SDS011;1893;52.526;13.360;2022-08-19T09:32:52;26.60;;;23.33;;
3755;SDS011;1893;52.526;13.360;2022-08-19T09:35:20;28.70;;;25.73;;
3755;SDS011;1893;52.526;13.360;2022-08-19T09:37:47;24.07;;;21.60;;
3755;SDS011;1893;52.526;13.360;2022-08-19T09:40:14;26.30;;;23.53;;
3755;SDS011;1893;52.526;13.360;2022-08-19T09:42:40;26.77;;;23.93;;
3755;SDS011;1893;52.526;13.360;2022-08-19T09:45:08;22.80;;;20.17;;
3755;SDS011;1893;52.526;13.360;2022-08-19T09:47:35;30.87;;;23.10;;
3755;SDS011;1893;52.526;13.360;2022-08-19T09:50:03;23.73;;;21.50;;
3755;SDS011;1893;52.526;13.360;2022-08-19T09:52:33;24.40;;;22.10;;
3755;SDS011;1893;52.526;13.360;2022-08-19T09:55:01;24.40;;;21.83;;
3755;SDS011;1893;52.526;13.360;2022-08-19T09:57:28;29.47;;;26.13;;
3755;SDS011;1893;52.526;13.360;2022-08-19T09:59:54;25.63;;;23.03;;
3755;SDS011;1893;52.526;13.360;2022-08-19T10:02:19;23.17;;;21.10;;
3755;SDS011;1893;52.526;13.360;2022-08-19T10:04:45;23.30;;;21.00;;
3755;SDS011;1893;52.526;13.360;2022-08-19T10:07:29;23.30;;;21.17;;
3755;SDS011;1893;52.526;13.360;2022-08-19T10:09:55;24.53;;;22.23;;
3755;SDS011;1893;52.526;13.360;2022-08-19T10:12:21;23.37;;;21.17;;
3755;SDS011;1893;52.526;13.360;2022-08-19T10:14:47;24.60;;;22.30;;
3755;SDS011;1893;52.526;13.360;2022-08-19T10:17:13;21.43;;;19.37;;
3755;SDS011;1893;52.526;13.360;2022-08-19T10:19:39;24.93;;;22.43;;
3755;SDS011;1893;52.526;13.360;2022-08-19T10:22:06;22.37;;;20.13;;
3755;SDS011;1893;52.526;13.360;2022-08-19T10:24:32;22.50;;;20.30;;
3755;SDS011;1893;52.526;13.360;2022-08-19T10:26:58;21.53;;;19.63;;
3755;SDS011;1893;52.526;13.360;2022-08-19T10:29:25;22.60;;;20.40;;
3755;SDS011;1893;52.526;13.360;2022-08-19T10:31:53;28.93;;;24.93;;
3755;SDS011;1893;52.526;13.360;2022-08-19T10:34:19;22.40;;;20.20;;
3755;SDS011;1893;52.526;13.360;2022-08-19T10:36:44;22.40;;;20.40;;
3755;SDS011;1893;52.526;13.360;2022-08-19T10:39:10;23.40;;;21.10;;
3755;SDS011;1893;52.526;13.360;2022-08-19T10:41:38;20.87;;;18.90;;
3755;SDS011;1893;52.526;13.360;2022-08-19T10:44:05;24.37;;;21.83;;
3755;SDS011;1893;52.526;13.360;2022-08-19T10:46:34;22.87;;;20.53;;
3755;SDS011;1893;52.526;13.360;2022-08-19T10:49:02;34.10;;;24.40;;
3755;SDS011;1893;52.526;13.360;2022-08-19T10:51:29;23.10;;;20.90;;
3755;SDS011;1893;52.526;13.360;2022-08-19T10:54:14;24.87;;;22.13;;
3755;SDS011;1893;52.526;13.360;2022-08-19T10:56:40;22.80;;;20.60;;
3755;SDS011;1893;52.526;13.360;2022-08-19T11:01:49;22.20;;;19.97;;
3755;SDS011;1893;52.526;13.360;2022-08-19T11:04:16;24.07;;;21.97;;
3755;SDS011;1893;52.526;13.360;2022-08-19T11:06:47;22.37;;;20.37;;
3755;SDS011;1893;52.526;13.360;2022-08-19T11:09:17;22.83;;;20.60;;
3755;SDS011;1893;52.526;13.360;2022-08-19T11:11:45;21.00;;;19.10;;
3755;SDS011;1893;52.526;13.360;2022-08-19T11:14:13;22.67;;;20.33;;
3755;SDS011;1893;52.526;13.360;2022-08-19T11:16:40;22.37;;;20.37;;
3755;SDS011;1893;52.526;13.360;2022-08-19T11:19:07;22.63;;;20.30;;
3755;SDS011;1893;52.526;13.360;2022-08-19T11:21:35;21.63;;;19.63;;
3755;SDS011;1893;52.526;13.360;2022-08-19T11:24:03;20.83;;;18.93;;
3755;SDS011;1893;52.526;13.360;2022-08-19T11:26:32;21.67;;;19.67;;
3755;SDS011;1893;52.526;13.360;2022-08-19T11:28:58;22.20;;;20.00;;
3755;SDS011;1893;52.526;13.360;2022-08-19T11:31:29;18.80;;;17.00;;
3755;SDS011;1893;52.526;13.360;2022-08-19T11:33:57;19.10;;;17.30;;
3755;SDS011;1893;52.526;13.360;2022-08-19T11:36:24;20.57;;;18.50;;
3755;SDS011;1893;52.526;13.360;2022-08-19T11:38:51;19.03;;;17.43;;
3755;SDS011;1893;52.526;13.360;2022-08-19T11:41:18;18.63;;;16.83;;
3755;SDS011;1893;52.526;13.360;2022-08-19T11:43:45;18.57;;;17.03;;
3755;SDS011;1893;52.526;13.360;2022-08-19T11:46:11;19.47;;;17.20;;
3755;SDS011;1893;52.526;13.360;2022-08-19T11:48:39;16.37;;;14.83;;
3755;SDS011;1893;52.526;13.360;2022-08-19T11:51:07;16.77;;;15.23;;
3755;SDS011;1893;52.526;13.360;2022-08-19T11:53:36;17.07;;;15.53;;
3755;SDS011;1893;52.526;13.360;2022-08-19T11:56:02;15.63;;;14.33;;
3755;SDS011;1893;52.526;13.360;2022-08-19T11:58:29;16.47;;;14.73;;
3755;SDS011;1893;52.526;13.360;2022-08-19T12:00:55;16.77;;;15.37;;
3755;SDS011;1893;52.526;13.360;2022-08-19T12:03:21;17.77;;;16.17;;
3755;SDS011;1893;52.526;13.360;2022-08-19T12:05:47;17.00;;;15.60;;
3755;SDS011;1893;52.526;13.360;2022-08-19T12:08:13;17.47;;;15.77;;
3755;SDS011;1893;52.526;13.360;2022-08-19T12:10:39;18.13;;;15.87;;
3755;SDS011;1893;52.526;13.360;2022-08-19T12:13:06;16.30;;;14.70;;
3755;SDS011;1893;52.526;13.360;2022-08-19T12:15:38;17.73;;;14.83;;
3755;SDS011;1893;52.526;13.360;2022-08-19T12:18:08;16.70;;;15.00;;
3755;SDS011;1893;52.526;13.360;2022-08-19T12:20:35;17.43;;;15.83;;
3755;SDS011;1893;52.526;13.360;2022-08-19T12:23:03;17.07;;;15.47;;
3755;SDS011;1893;52.526;13.360;2022-08-19T12:25:30;16.70;;;15.10;;
3755;SDS011;1893;52.526;13.360;2022-08-19T12:27:56;17.33;;;15.53;;
3755;SDS011;1893;52.526;13.360;2022-08-19T12:30:22;15.77;;;14.27;;
3755;SDS011;1893;52.526;13.360;2022-08-19T12:32:48;15.90;;;14.50;;
3755;SDS011;1893;52.526;13.360;2022-08-19T12:35:15;17.20;;;15.70;;
3755;SDS011;1893;52.526;13.360;2022-08-19T12:37:42;18.07;;;16.40;;
3755;SDS011;1893;52.526;13.360;2022-08-19T12:40:09;16.63;;;14.43;;
3755;SDS011;1893;52.526;13.360;2022-08-19T12:42:37;14.80;;;13.40;;
3755;SDS011;1893;52.526;13.360;2022-08-19T12:45:07;18.83;;;13.67;;
3755;SDS011;1893;52.526;13.360;2022-08-19T12:47:34;15.07;;;13.57;;
3755;SDS011;1893;52.526;13.360;2022-08-19T12:49:59;15.47;;;13.83;;
3755;SDS011;1893;52.526;13.360;2022-08-19T12:52:25;15.10;;;13.57;;
3755;SDS011;1893;52.526;13.360;2022-08-19T12:54:53;14.40;;;13.03;;
3755;SDS011;1893;52.526;13.360;2022-08-19T12:57:19;15.90;;;13.23;;
3755;SDS011;1893;52.526;13.360;2022-08-19T12:59:46;16.67;;;15.03;;
3755;SDS011;1893;52.526;13.360;2022-08-19T13:02:11;14.67;;;12.60;;
3755;SDS011;1893;52.526;13.360;2022-08-19T13:04:37;15.07;;;13.63;;
3755;SDS011;1893;52.526;13.360;2022-08-19T13:07:05;14.63;;;13.33;;
3755;SDS011;1893;52.526;13.360;2022-08-19T13:09:33;14.60;;;13.30;;
3755;SDS011;1893;52.526;13.360;2022-08-19T13:11:58;16.50;;;14.90;;
3755;SDS011;1893;52.526;13.360;2022-08-19T13:14:25;17.30;;;15.70;;
3755;SDS011;1893;52.526;13.360;2022-08-19T13:16:51;18.00;;;16.40;;
3755;SDS011;1893;52.526;13.360;2022-08-19T13:19:16;17.40;;;15.70;;
3755;SDS011;1893;52.526;13.360;2022-08-19T13:21:45;16.70;;;15.10;;
3755;SDS011;1893;52.526;13.360;2022-08-19T13:24:14;16.70;;;15.30;;
3755;SDS011;1893;52.526;13.360;2022-08-19T13:26:40;17.47;;;15.67;;
3755;SDS011;1893;52.526;13.360;2022-08-19T13:29:05;17.17;;;15.70;;
3755;SDS011;1893;52.526;13.360;2022-08-19T13:31:49;15.90;;;14.40;;
3755;SDS011;1893;52.526;13.360;2022-08-19T13:34:34;16.27;;;14.73;;
3755;SDS011;1893;52.526;13.360;2022-08-19T13:37:01;15.97;;;14.67;;
3755;SDS011;1893;52.526;13.360;2022-08-19T13:39:31;14.60;;;13.50;;
3755;SDS011;1893;52.526;13.360;2022-08-19T13:42:01;16.73;;;15.23;;
3755;SDS011;1893;52.526;13.360;2022-08-19T13:44:29;15.87;;;14.27;;
3755;SDS011;1893;52.526;13.360;2022-08-19T13:46:55;16.93;;;15.20;;
3755;SDS011;1893;52.526;13.360;2022-08-19T13:49:31;16.80;;;15.10;;
3755;SDS011;1893;52.526;13.360;2022-08-19T13:51:57;16.37;;;14.80;;
3755;SDS011;1893;52.526;13.360;2022-08-19T13:54:23;17.80;;;16.13;;
3755;SDS011;1893;52.526;13.360;2022-08-19T13:56:48;15.30;;;13.90;;
3755;SDS011;1893;52.526;13.360;2022-08-19T13:59:14;16.67;;;15.03;;
3755;SDS011;1893;52.526;13.360;2022-08-19T14:01:40;15.57;;;14.37;;
3755;SDS011;1893;52.526;13.360;2022-08-19T14:04:06;17.17;;;15.53;;
3755;SDS011;1893;52.526;13.360;2022-08-19T14:06:33;16.80;;;15.40;;
3755;SDS011;1893;52.526;13.360;2022-08-19T14:08:59;18.03;;;16.33;;
3755;SDS011;1893;52.526;13.360;2022-08-19T14:11:24;16.63;;;15.00;;
3755;SDS011;1893;52.526;13.360;2022-08-19T14:13:50;17.20;;;15.70;;
3755;SDS011;1893;52.526;13.360;2022-08-19T14:16:16;16.13;;;14.50;;
3755;SDS011;1893;52.526;13.360;2022-08-19T14:18:41;15.73;;;14.43;;
3755;SDS011;1893;52.526;13.360;2022-08-19T14:21:08;16.50;;;14.90;;
3755;SDS011;1893;52.526;13.360;2022-08-19T14:23:45;16.87;;;15.30;;
3755;SDS011;1893;52.526;13.360;2022-08-19T14:26:12;16.07;;;14.40;;
3755;SDS011;1893;52.526;13.360;2022-08-19T14:28:39;15.47;;;14.17;;
3755;SDS011;1893;52.526;13.360;2022-08-19T14:31:06;17.83;;;16.13;;
3755;SDS011;1893;52.526;13.360;2022-08-19T14:33:33;16.00;;;14.50;;
3755;SDS011;1893;52.526;13.360;2022-08-19T14:35:58;15.83;;;14.53;;
3755;SDS011;1893;52.526;13.360;2022-08-19T14:38:25;15.40;;;14.00;;
3755;SDS011;1893;52.526;13.360;2022-08-19T14:40:50;15.63;;;14.30;;
3755;SDS011;1893;52.526;13.360;2022-08-19T14:43:17;16.37;;;14.97;;
3755;SDS011;1893;52.526;13.360;2022-08-19T14:45:43;15.97;;;14.47;;
3755;SDS011;1893;52.526;13.360;2022-08-19T14:48:08;15.23;;;13.97;;
3755;SDS011;1893;52.526;13.360;2022-08-19T14:50:34;15.83;;;14.33;;
3755;SDS011;1893;52.526;13.360;2022-08-19T14:53:03;14.20;;;13.07;;